sensor_id;sensor_type;location;lat;lon;timestamp;temperature;humidity
42683;DHT22;28293;50.930;3.464;2023-04-24T00:01:28;10.30;87.20
42683;DHT22;28293;50.930;3.464;2023-04-24T00:03:55;10.30;87.30
42683;DHT22;28293;50.930;3.464;2023-04-24T00:06:25;10.30;87.20
42683;DHT22;28293;50.930;3.464;2023-04-24T00:09:01;10.30;87.30
42683;DHT22;28293;50.930;3.464;2023-04-24T00:11:27;10.30;87.30
42683;DHT22;28293;50.930;3.464;2023-04-24T00:13:53;10.30;87.10
42683;DHT22;28293;50.930;3.464;2023-04-24T00:16:19;10.30;86.70
42683;DHT22;28293;50.930;3.464;2023-04-24T00:18:44;10.10;86.50
42683;DHT22;28293;50.930;3.464;2023-04-24T00:21:10;10.10;86.60
42683;DHT22;28293;50.930;3.464;2023-04-24T00:23:36;10.10;86.30
42683;DHT22;28293;50.930;3.464;2023-04-24T00:26:02;10.00;86.30
42683;DHT22;28293;50.930;3.464;2023-04-24T00:28:28;9.90;86.10
42683;DHT22;28293;50.930;3.464;2023-04-24T00:30:54;9.80;86.50
42683;DHT22;28293;50.930;3.464;2023-04-24T00:33:19;9.70;86.80
42683;DHT22;28293;50.930;3.464;2023-04-24T00:35:45;9.70;86.80
42683;DHT22;28293;50.930;3.464;2023-04-24T00:38:11;9.80;86.90
42683;DHT22;28293;50.930;3.464;2023-04-24T00:40:37;9.80;87.00
42683;DHT22;28293;50.930;3.464;2023-04-24T00:43:03;9.70;87.10
42683;DHT22;28293;50.930;3.464;2023-04-24T00:45:29;9.80;87.10
42683;DHT22;28293;50.930;3.464;2023-04-24T00:47:56;9.70;86.80
42683;DHT22;28293;50.930;3.464;2023-04-24T00:50:23;9.70;87.00
42683;DHT22;28293;50.930;3.464;2023-04-24T00:52:49;9.70;87.10
42683;DHT22;28293;50.930;3.464;2023-04-24T00:55:16;9.70;87.10
42683;DHT22;28293;50.930;3.464;2023-04-24T00:57:42;9.70;87.20
42683;DHT22;28293;50.930;3.464;2023-04-24T01:00:09;9.70;86.90
42683;DHT22;28293;50.930;3.464;2023-04-24T01:02:39;9.70;86.90
42683;DHT22;28293;50.930;3.464;2023-04-24T01:05:09;9.70;86.80
42683;DHT22;28293;50.930;3.464;2023-04-24T01:07:35;9.70;86.80
42683;DHT22;28293;50.930;3.464;2023-04-24T01:10:02;9.70;87.10
42683;DHT22;28293;50.930;3.464;2023-04-24T01:12:27;9.70;87.00
42683;DHT22;28293;50.930;3.464;2023-04-24T01:14:54;9.70;87.00
42683;DHT22;28293;50.930;3.464;2023-04-24T01:17:20;9.60;87.10
42683;DHT22;28293;50.930;3.464;2023-04-24T01:19:46;9.70;87.30
42683;DHT22;28293;50.930;3.464;2023-04-24T01:22:15;9.70;87.30
42683;DHT22;28293;50.930;3.464;2023-04-24T01:24:42;9.70;87.20
42683;DHT22;28293;50.930;3.464;2023-04-24T01:27:10;9.70;87.40
42683;DHT22;28293;50.930;3.464;2023-04-24T01:29:36;9.70;87.60
42683;DHT22;28293;50.930;3.464;2023-04-24T01:32:03;9.70;87.60
42683;DHT22;28293;50.930;3.464;2023-04-24T01:34:29;9.60;87.90
42683;DHT22;28293;50.930;3.464;2023-04-24T01:36:55;9.70;88.30
42683;DHT22;28293;50.930;3.464;2023-04-24T01:39:22;9.70;88.40
42683;DHT22;28293;50.930;3.464;2023-04-24T01:41:51;9.60;88.70
42683;DHT22;28293;50.930;3.464;2023-04-24T01:44:18;9.60;88.90
42683;DHT22;28293;50.930;3.464;2023-04-24T01:46:43;9.60;89.00
42683;DHT22;28293;50.930;3.464;2023-04-24T01:49:10;9.60;88.90
42683;DHT22;28293;50.930;3.464;2023-04-24T01:51:36;9.60;89.10
42683;DHT22;28293;50.930;3.464;2023-04-24T01:54:01;9.60;89.10
42683;DHT22;28293;50.930;3.464;2023-04-24T01:56:29;9.60;89.30
42683;DHT22;28293;50.930;3.464;2023-04-24T01:58:56;9.60;89.40
42683;DHT22;28293;50.930;3.464;2023-04-24T02:01:24;9.60;89.50
42683;DHT22;28293;50.930;3.464;2023-04-24T02:03:50;9.60;89.50
42683;DHT22;28293;50.930;3.464;2023-04-24T02:06:15;9.50;89.60
42683;DHT22;28293;50.930;3.464;2023-04-24T02:08:41;9.50;89.70
42683;DHT22;28293;50.930;3.464;2023-04-24T02:11:09;9.50;89.90
42683;DHT22;28293;50.930;3.464;2023-04-24T02:13:35;9.50;90.10
42683;DHT22;28293;50.930;3.464;2023-04-24T02:16:01;9.50;90.20
42683;DHT22;28293;50.930;3.464;2023-04-24T02:18:26;9.50;90.20
42683;DHT22;28293;50.930;3.464;2023-04-24T02:20:52;9.50;90.40
42683;DHT22;28293;50.930;3.464;2023-04-24T02:23:19;9.50;90.50
42683;DHT22;28293;50.930;3.464;2023-04-24T02:25:44;9.50;90.50
42683;DHT22;28293;50.930;3.464;2023-04-24T02:28:11;9.40;90.80
42683;DHT22;28293;50.930;3.464;2023-04-24T02:30:36;9.50;91.20
42683;DHT22;28293;50.930;3.464;2023-04-24T02:33:02;9.40;91.20
42683;DHT22;28293;50.930;3.464;2023-04-24T02:35:28;9.50;91.30
42683;DHT22;28293;50.930;3.464;2023-04-24T02:37:54;9.60;91.40
42683;DHT22;28293;50.930;3.464;2023-04-24T02:40:20;9.60;91.40
42683;DHT22;28293;50.930;3.464;2023-04-24T02:42:46;9.50;91.30
42683;DHT22;28293;50.930;3.464;2023-04-24T02:45:11;9.60;91.30
42683;DHT22;28293;50.930;3.464;2023-04-24T02:47:37;9.50;91.20
42683;DHT22;28293;50.930;3.464;2023-04-24T02:50:03;9.50;91.10
42683;DHT22;28293;50.930;3.464;2023-04-24T02:52:32;9.50;91.20
42683;DHT22;28293;50.930;3.464;2023-04-24T02:54:57;9.60;91.10
42683;DHT22;28293;50.930;3.464;2023-04-24T02:57:23;9.50;91.20
42683;DHT22;28293;50.930;3.464;2023-04-24T02:59:49;9.50;91.00
42683;DHT22;28293;50.930;3.464;2023-04-24T03:02:14;9.50;91.20
42683;DHT22;28293;50.930;3.464;2023-04-24T03:04:40;9.50;91.10
42683;DHT22;28293;50.930;3.464;2023-04-24T03:07:09;9.50;91.20
42683;DHT22;28293;50.930;3.464;2023-04-24T03:09:35;9.40;91.30
42683;DHT22;28293;50.930;3.464;2023-04-24T03:12:01;9.40;91.40
42683;DHT22;28293;50.930;3.464;2023-04-24T03:14:26;9.40;91.20
42683;DHT22;28293;50.930;3.464;2023-04-24T03:16:52;9.30;91.20
42683;DHT22;28293;50.930;3.464;2023-04-24T03:19:18;9.40;91.20
42683;DHT22;28293;50.930;3.464;2023-04-24T03:21:44;9.30;91.10
42683;DHT22;28293;50.930;3.464;2023-04-24T03:24:09;9.20;91.00
42683;DHT22;28293;50.930;3.464;2023-04-24T03:26:35;9.20;91.00
42683;DHT22;28293;50.930;3.464;2023-04-24T03:29:01;9.20;91.00
42683;DHT22;28293;50.930;3.464;2023-04-24T03:31:27;9.20;90.90
42683;DHT22;28293;50.930;3.464;2023-04-24T03:33:52;9.20;91.00
42683;DHT22;28293;50.930;3.464;2023-04-24T03:36:18;9.20;91.10
42683;DHT22;28293;50.930;3.464;2023-04-24T03:38:44;9.20;91.00
42683;DHT22;28293;50.930;3.464;2023-04-24T03:41:10;9.10;90.90
42683;DHT22;28293;50.930;3.464;2023-04-24T03:43:37;9.10;90.80
42683;DHT22;28293;50.930;3.464;2023-04-24T03:46:03;9.10;90.90
42683;DHT22;28293;50.930;3.464;2023-04-24T03:48:29;9.10;90.70
42683;DHT22;28293;50.930;3.464;2023-04-24T03:50:54;9.10;90.60
42683;DHT22;28293;50.930;3.464;2023-04-24T03:53:20;9.20;90.60
42683;DHT22;28293;50.930;3.464;2023-04-24T03:55:46;9.10;90.50
42683;DHT22;28293;50.930;3.464;2023-04-24T03:58:12;9.10;90.40
42683;DHT22;28293;50.930;3.464;2023-04-24T04:00:39;9.10;90.20
42683;DHT22;28293;50.930;3.464;2023-04-24T04:03:06;9.10;90.30
42683;DHT22;28293;50.930;3.464;2023-04-24T04:05:31;9.10;90.20
42683;DHT22;28293;50.930;3.464;2023-04-24T04:07:57;9.10;90.10
42683;DHT22;28293;50.930;3.464;2023-04-24T04:10:23;9.00;90.00
42683;DHT22;28293;50.930;3.464;2023-04-24T04:12:48;9.00;90.00
42683;DHT22;28293;50.930;3.464;2023-04-24T04:15:14;9.00;89.90
42683;DHT22;28293;50.930;3.464;2023-04-24T04:17:40;9.00;89.80
42683;DHT22;28293;50.930;3.464;2023-04-24T04:20:06;9.00;89.70
42683;DHT22;28293;50.930;3.464;2023-04-24T04:22:36;8.90;89.50
42683;DHT22;28293;50.930;3.464;2023-04-24T04:25:02;8.90;89.40
42683;DHT22;28293;50.930;3.464;2023-04-24T04:27:28;8.90;89.00
42683;DHT22;28293;50.930;3.464;2023-04-24T04:30:01;8.80;89.00
42683;DHT22;28293;50.930;3.464;2023-04-24T04:32:33;8.80;89.00
42683;DHT22;28293;50.930;3.464;2023-04-24T04:34:59;8.80;89.00
42683;DHT22;28293;50.930;3.464;2023-04-24T04:37:37;8.90;89.00
42683;DHT22;28293;50.930;3.464;2023-04-24T04:40:03;8.80;89.00
42683;DHT22;28293;50.930;3.464;2023-04-24T04:42:33;8.80;89.10
42683;DHT22;28293;50.930;3.464;2023-04-24T04:45:06;8.80;88.90
42683;DHT22;28293;50.930;3.464;2023-04-24T04:47:34;8.80;88.90
42683;DHT22;28293;50.930;3.464;2023-04-24T04:50:00;8.80;89.00
42683;DHT22;28293;50.930;3.464;2023-04-24T04:52:26;8.80;88.90
42683;DHT22;28293;50.930;3.464;2023-04-24T04:54:52;8.80;88.70
42683;DHT22;28293;50.930;3.464;2023-04-24T04:57:17;8.80;88.80
42683;DHT22;28293;50.930;3.464;2023-04-24T04:59:43;8.90;88.60
42683;DHT22;28293;50.930;3.464;2023-04-24T05:02:09;8.90;88.70
42683;DHT22;28293;50.930;3.464;2023-04-24T05:04:35;8.90;88.50
42683;DHT22;28293;50.930;3.464;2023-04-24T05:07:00;9.00;88.60
42683;DHT22;28293;50.930;3.464;2023-04-24T05:09:26;9.00;88.60
42683;DHT22;28293;50.930;3.464;2023-04-24T05:11:54;8.90;88.60
42683;DHT22;28293;50.930;3.464;2023-04-24T05:14:20;8.80;88.80
42683;DHT22;28293;50.930;3.464;2023-04-24T05:16:46;9.00;88.80
42683;DHT22;28293;50.930;3.464;2023-04-24T05:19:12;9.00;88.70
42683;DHT22;28293;50.930;3.464;2023-04-24T05:21:39;9.00;88.60
42683;DHT22;28293;50.930;3.464;2023-04-24T05:24:05;9.00;89.00
42683;DHT22;28293;50.930;3.464;2023-04-24T05:26:31;9.10;89.00
42683;DHT22;28293;50.930;3.464;2023-04-24T05:28:57;9.10;89.10
42683;DHT22;28293;50.930;3.464;2023-04-24T05:31:23;9.10;89.00
42683;DHT22;28293;50.930;3.464;2023-04-24T05:33:48;9.00;89.10
42683;DHT22;28293;50.930;3.464;2023-04-24T05:36:14;9.10;89.10
42683;DHT22;28293;50.930;3.464;2023-04-24T05:38:40;9.10;89.20
42683;DHT22;28293;50.930;3.464;2023-04-24T05:41:06;9.10;89.20
42683;DHT22;28293;50.930;3.464;2023-04-24T05:43:31;9.10;89.10
42683;DHT22;28293;50.930;3.464;2023-04-24T05:45:57;9.10;89.00
42683;DHT22;28293;50.930;3.464;2023-04-24T05:48:23;9.20;88.90
42683;DHT22;28293;50.930;3.464;2023-04-24T05:50:48;9.20;88.90
42683;DHT22;28293;50.930;3.464;2023-04-24T05:53:14;9.20;88.70
42683;DHT22;28293;50.930;3.464;2023-04-24T05:55:40;9.30;88.70
42683;DHT22;28293;50.930;3.464;2023-04-24T05:58:06;9.30;88.50
42683;DHT22;28293;50.930;3.464;2023-04-24T06:00:32;9.30;88.10
42683;DHT22;28293;50.930;3.464;2023-04-24T06:02:59;9.40;88.40
42683;DHT22;28293;50.930;3.464;2023-04-24T06:05:25;9.30;88.30
42683;DHT22;28293;50.930;3.464;2023-04-24T06:07:51;9.40;88.20
42683;DHT22;28293;50.930;3.464;2023-04-24T06:10:17;9.50;87.90
42683;DHT22;28293;50.930;3.464;2023-04-24T06:12:43;9.40;87.90
42683;DHT22;28293;50.930;3.464;2023-04-24T06:15:09;9.50;87.70
42683;DHT22;28293;50.930;3.464;2023-04-24T06:17:35;9.60;87.10
42683;DHT22;28293;50.930;3.464;2023-04-24T06:20:01;9.60;87.00
42683;DHT22;28293;50.930;3.464;2023-04-24T06:22:30;9.60;86.80
42683;DHT22;28293;50.930;3.464;2023-04-24T06:24:55;9.70;86.80
42683;DHT22;28293;50.930;3.464;2023-04-24T06:27:21;9.70;86.50
42683;DHT22;28293;50.930;3.464;2023-04-24T06:29:47;9.80;86.30
42683;DHT22;28293;50.930;3.464;2023-04-24T06:32:21;9.80;86.30
42683;DHT22;28293;50.930;3.464;2023-04-24T06:34:46;9.90;86.00
42683;DHT22;28293;50.930;3.464;2023-04-24T06:37:12;9.80;85.40
42683;DHT22;28293;50.930;3.464;2023-04-24T06:39:38;9.80;85.60
42683;DHT22;28293;50.930;3.464;2023-04-24T06:42:03;9.70;85.90
42683;DHT22;28293;50.930;3.464;2023-04-24T06:44:29;9.70;85.90
42683;DHT22;28293;50.930;3.464;2023-04-24T06:46:55;9.80;85.40
42683;DHT22;28293;50.930;3.464;2023-04-24T06:49:20;9.70;85.70
42683;DHT22;28293;50.930;3.464;2023-04-24T06:51:46;9.70;85.70
42683;DHT22;28293;50.930;3.464;2023-04-24T06:54:12;9.80;85.60
42683;DHT22;28293;50.930;3.464;2023-04-24T06:56:38;9.70;85.20
42683;DHT22;28293;50.930;3.464;2023-04-24T06:59:03;9.80;85.00
42683;DHT22;28293;50.930;3.464;2023-04-24T07:01:29;9.90;84.60
42683;DHT22;28293;50.930;3.464;2023-04-24T07:03:55;9.90;84.50
42683;DHT22;28293;50.930;3.464;2023-04-24T07:06:20;10.10;84.40
42683;DHT22;28293;50.930;3.464;2023-04-24T07:08:48;10.20;84.20
42683;DHT22;28293;50.930;3.464;2023-04-24T07:11:14;10.10;83.50
42683;DHT22;28293;50.930;3.464;2023-04-24T07:13:39;10.10;83.60
42683;DHT22;28293;50.930;3.464;2023-04-24T07:16:07;10.00;83.30
42683;DHT22;28293;50.930;3.464;2023-04-24T07:18:33;10.00;83.00
42683;DHT22;28293;50.930;3.464;2023-04-24T07:20:59;10.00;83.30
42683;DHT22;28293;50.930;3.464;2023-04-24T07:23:26;10.20;83.70
42683;DHT22;28293;50.930;3.464;2023-04-24T07:25:51;10.30;82.30
42683;DHT22;28293;50.930;3.464;2023-04-24T07:28:17;10.30;81.80
42683;DHT22;28293;50.930;3.464;2023-04-24T07:30:43;10.40;81.60
42683;DHT22;28293;50.930;3.464;2023-04-24T07:33:09;10.60;81.00
42683;DHT22;28293;50.930;3.464;2023-04-24T07:35:36;10.70;79.60
42683;DHT22;28293;50.930;3.464;2023-04-24T07:38:02;11.00;79.50
42683;DHT22;28293;50.930;3.464;2023-04-24T07:40:28;11.00;79.10
42683;DHT22;28293;50.930;3.464;2023-04-24T07:42:53;11.00;77.70
42683;DHT22;28293;50.930;3.464;2023-04-24T07:45:19;11.00;78.00
42683;DHT22;28293;50.930;3.464;2023-04-24T07:47:44;11.20;78.10
42683;DHT22;28293;50.930;3.464;2023-04-24T07:50:11;11.40;75.40
42683;DHT22;28293;50.930;3.464;2023-04-24T07:52:38;11.30;76.20
42683;DHT22;28293;50.930;3.464;2023-04-24T07:55:04;11.10;76.00
42683;DHT22;28293;50.930;3.464;2023-04-24T07:57:30;11.10;75.80
42683;DHT22;28293;50.930;3.464;2023-04-24T07:59:56;11.30;76.50
42683;DHT22;28293;50.930;3.464;2023-04-24T08:02:21;11.20;74.40
42683;DHT22;28293;50.930;3.464;2023-04-24T08:04:52;11.20;74.80
42683;DHT22;28293;50.930;3.464;2023-04-24T08:07:19;11.30;75.40
42683;DHT22;28293;50.930;3.464;2023-04-24T08:09:44;11.00;76.00
42683;DHT22;28293;50.930;3.464;2023-04-24T08:12:10;11.10;76.50
42683;DHT22;28293;50.930;3.464;2023-04-24T08:14:36;11.10;75.70
42683;DHT22;28293;50.930;3.464;2023-04-24T08:17:01;11.20;75.50
42683;DHT22;28293;50.930;3.464;2023-04-24T08:19:27;11.70;75.80
42683;DHT22;28293;50.930;3.464;2023-04-24T08:21:53;11.80;74.50
42683;DHT22;28293;50.930;3.464;2023-04-24T08:24:19;11.80;73.90
42683;DHT22;28293;50.930;3.464;2023-04-24T08:26:44;11.60;73.40
42683;DHT22;28293;50.930;3.464;2023-04-24T08:29:10;11.60;73.90
42683;DHT22;28293;50.930;3.464;2023-04-24T08:31:36;11.50;73.40
42683;DHT22;28293;50.930;3.464;2023-04-24T08:34:02;11.50;73.90
42683;DHT22;28293;50.930;3.464;2023-04-24T08:36:28;11.40;74.40
42683;DHT22;28293;50.930;3.464;2023-04-24T08:38:53;11.20;74.50
42683;DHT22;28293;50.930;3.464;2023-04-24T08:41:19;11.30;74.20
42683;DHT22;28293;50.930;3.464;2023-04-24T08:43:48;11.30;73.60
42683;DHT22;28293;50.930;3.464;2023-04-24T08:46:15;11.20;72.80
42683;DHT22;28293;50.930;3.464;2023-04-24T08:48:42;11.20;72.70
42683;DHT22;28293;50.930;3.464;2023-04-24T08:51:08;11.20;72.60
42683;DHT22;28293;50.930;3.464;2023-04-24T08:53:35;11.30;73.40
42683;DHT22;28293;50.930;3.464;2023-04-24T08:56:01;11.20;72.90
42683;DHT22;28293;50.930;3.464;2023-04-24T08:58:27;11.30;73.20
42683;DHT22;28293;50.930;3.464;2023-04-24T09:00:57;11.10;73.50
42683;DHT22;28293;50.930;3.464;2023-04-24T09:03:24;11.10;74.10
42683;DHT22;28293;50.930;3.464;2023-04-24T09:05:54;11.30;74.30
42683;DHT22;28293;50.930;3.464;2023-04-24T09:08:23;11.00;73.00
42683;DHT22;28293;50.930;3.464;2023-04-24T09:10:49;11.10;74.00
42683;DHT22;28293;50.930;3.464;2023-04-24T09:13:15;11.10;74.10
42683;DHT22;28293;50.930;3.464;2023-04-24T09:15:42;11.20;72.90
42683;DHT22;28293;50.930;3.464;2023-04-24T09:18:08;11.20;73.70
42683;DHT22;28293;50.930;3.464;2023-04-24T09:20:33;11.30;73.60
42683;DHT22;28293;50.930;3.464;2023-04-24T09:23:01;11.60;73.50
42683;DHT22;28293;50.930;3.464;2023-04-24T09:25:34;11.90;73.50
42683;DHT22;28293;50.930;3.464;2023-04-24T09:28:04;11.80;71.80
42683;DHT22;28293;50.930;3.464;2023-04-24T09:30:32;11.80;72.50
42683;DHT22;28293;50.930;3.464;2023-04-24T09:33:14;11.60;71.80
42683;DHT22;28293;50.930;3.464;2023-04-24T09:35:50;11.50;72.30
42683;DHT22;28293;50.930;3.464;2023-04-24T09:38:16;11.50;72.20
42683;DHT22;28293;50.930;3.464;2023-04-24T09:40:42;11.50;72.50
42683;DHT22;28293;50.930;3.464;2023-04-24T09:43:10;11.50;72.20
42683;DHT22;28293;50.930;3.464;2023-04-24T09:45:39;11.60;71.10
42683;DHT22;28293;50.930;3.464;2023-04-24T09:48:09;11.60;71.80
42683;DHT22;28293;50.930;3.464;2023-04-24T09:50:35;11.80;71.70
42683;DHT22;28293;50.930;3.464;2023-04-24T09:53:03;11.60;71.20
42683;DHT22;28293;50.930;3.464;2023-04-24T09:55:32;11.70;71.60
42683;DHT22;28293;50.930;3.464;2023-04-24T09:58:00;12.00;71.60
42683;DHT22;28293;50.930;3.464;2023-04-24T10:00:28;12.00;70.40
42683;DHT22;28293;50.930;3.464;2023-04-24T10:02:57;11.80;69.90
42683;DHT22;28293;50.930;3.464;2023-04-24T10:05:34;11.70;70.60
42683;DHT22;28293;50.930;3.464;2023-04-24T10:08:03;11.60;70.30
42683;DHT22;28293;50.930;3.464;2023-04-24T10:10:31;11.80;71.00
42683;DHT22;28293;50.930;3.464;2023-04-24T10:12:57;12.10;69.90
42683;DHT22;28293;50.930;3.464;2023-04-24T10:15:22;12.00;69.60
42683;DHT22;28293;50.930;3.464;2023-04-24T10:17:51;12.00;70.10
42683;DHT22;28293;50.930;3.464;2023-04-24T10:20:24;12.10;70.70
42683;DHT22;28293;50.930;3.464;2023-04-24T10:22:54;11.90;70.70
42683;DHT22;28293;50.930;3.464;2023-04-24T10:25:21;11.80;70.80
42683;DHT22;28293;50.930;3.464;2023-04-24T10:27:48;11.80;71.30
42683;DHT22;28293;50.930;3.464;2023-04-24T10:30:14;12.10;70.80
42683;DHT22;28293;50.930;3.464;2023-04-24T10:32:40;12.10;71.20
42683;DHT22;28293;50.930;3.464;2023-04-24T10:35:07;12.00;70.60
42683;DHT22;28293;50.930;3.464;2023-04-24T10:38:03;12.10;71.00
42683;DHT22;28293;50.930;3.464;2023-04-24T10:40:33;11.70;71.00
42683;DHT22;28293;50.930;3.464;2023-04-24T10:43:01;11.70;70.80
42683;DHT22;28293;50.930;3.464;2023-04-24T10:45:27;11.70;70.80
42683;DHT22;28293;50.930;3.464;2023-04-24T10:47:57;11.90;70.60
42683;DHT22;28293;50.930;3.464;2023-04-24T10:50:25;11.90;70.10
42683;DHT22;28293;50.930;3.464;2023-04-24T10:52:51;12.00;70.10
42683;DHT22;28293;50.930;3.464;2023-04-24T10:55:41;12.10;70.10
42683;DHT22;28293;50.930;3.464;2023-04-24T10:58:08;12.40;69.80
42683;DHT22;28293;50.930;3.464;2023-04-24T11:00:36;12.40;68.30
42683;DHT22;28293;50.930;3.464;2023-04-24T11:03:05;12.70;69.30
42683;DHT22;28293;50.930;3.464;2023-04-24T11:05:58;12.80;68.60
42683;DHT22;28293;50.930;3.464;2023-04-24T11:08:30;12.70;67.60
42683;DHT22;28293;50.930;3.464;2023-04-24T11:11:01;12.90;68.20
42683;DHT22;28293;50.930;3.464;2023-04-24T11:19:35;13.40;66.90
42683;DHT22;28293;50.930;3.464;2023-04-24T11:22:03;13.20;66.10
42683;DHT22;28293;50.930;3.464;2023-04-24T11:29:39;14.10;64.50
42683;DHT22;28293;50.930;3.464;2023-04-24T11:34:55;14.40;63.30
42683;DHT22;28293;50.930;3.464;2023-04-24T11:37:44;14.60;63.50
42683;DHT22;28293;50.930;3.464;2023-04-24T11:40:13;14.50;63.00
42683;DHT22;28293;50.930;3.464;2023-04-24T11:42:43;14.20;61.90
42683;DHT22;28293;50.930;3.464;2023-04-24T11:45:20;14.00;63.40
42683;DHT22;28293;50.930;3.464;2023-04-24T11:47:46;14.30;62.60
42683;DHT22;28293;50.930;3.464;2023-04-24T11:50:17;14.20;62.80
42683;DHT22;28293;50.930;3.464;2023-04-24T11:52:45;14.10;62.90
42683;DHT22;28293;50.930;3.464;2023-04-24T11:57:42;14.30;63.20
42683;DHT22;28293;50.930;3.464;2023-04-24T12:00:19;14.30;62.30
42683;DHT22;28293;50.930;3.464;2023-04-24T12:02:46;13.90;63.00
42683;DHT22;28293;50.930;3.464;2023-04-24T12:07:47;13.90;62.60
42683;DHT22;28293;50.930;3.464;2023-04-24T12:10:12;14.10;62.30
42683;DHT22;28293;50.930;3.464;2023-04-24T12:12:38;14.30;63.20
42683;DHT22;28293;50.930;3.464;2023-04-24T12:15:08;14.10;62.40
42683;DHT22;28293;50.930;3.464;2023-04-24T12:17:35;13.70;62.30
42683;DHT22;28293;50.930;3.464;2023-04-24T12:20:04;13.90;64.50
42683;DHT22;28293;50.930;3.464;2023-04-24T12:23:03;14.00;61.80
42683;DHT22;28293;50.930;3.464;2023-04-24T12:25:32;13.90;60.30
42683;DHT22;28293;50.930;3.464;2023-04-24T12:30:48;13.80;61.20
42683;DHT22;28293;50.930;3.464;2023-04-24T12:33:21;13.80;62.70
42683;DHT22;28293;50.930;3.464;2023-04-24T12:35:50;13.50;61.50
42683;DHT22;28293;50.930;3.464;2023-04-24T12:38:21;12.60;62.90
42683;DHT22;28293;50.930;3.464;2023-04-24T12:40:47;13.00;62.70
42683;DHT22;28293;50.930;3.464;2023-04-24T12:43:17;13.40;63.70
42683;DHT22;28293;50.930;3.464;2023-04-24T12:45:44;13.60;62.10
42683;DHT22;28293;50.930;3.464;2023-04-24T12:48:13;13.50;61.70
42683;DHT22;28293;50.930;3.464;2023-04-24T12:50:42;13.60;62.10
42683;DHT22;28293;50.930;3.464;2023-04-24T12:53:08;13.80;61.60
42683;DHT22;28293;50.930;3.464;2023-04-24T12:55:35;14.10;63.30
42683;DHT22;28293;50.930;3.464;2023-04-24T12:58:01;14.00;60.80
42683;DHT22;28293;50.930;3.464;2023-04-24T13:00:28;13.60;60.70
42683;DHT22;28293;50.930;3.464;2023-04-24T13:02:54;13.50;62.20
42683;DHT22;28293;50.930;3.464;2023-04-24T13:05:20;13.70;62.20
42683;DHT22;28293;50.930;3.464;2023-04-24T13:07:46;13.50;61.10
42683;DHT22;28293;50.930;3.464;2023-04-24T13:10:11;13.50;59.60
42683;DHT22;28293;50.930;3.464;2023-04-24T13:12:38;13.40;60.60
42683;DHT22;28293;50.930;3.464;2023-04-24T13:15:05;13.60;60.80
42683;DHT22;28293;50.930;3.464;2023-04-24T13:17:31;13.60;59.80
42683;DHT22;28293;50.930;3.464;2023-04-24T13:19:56;13.70;59.00
42683;DHT22;28293;50.930;3.464;2023-04-24T13:22:22;13.20;58.40
42683;DHT22;28293;50.930;3.464;2023-04-24T13:24:48;13.50;59.70
42683;DHT22;28293;50.930;3.464;2023-04-24T13:27:17;13.20;58.40
42683;DHT22;28293;50.930;3.464;2023-04-24T13:29:43;13.20;58.70
42683;DHT22;28293;50.930;3.464;2023-04-24T13:32:09;13.50;58.60
42683;DHT22;28293;50.930;3.464;2023-04-24T13:34:34;13.70;58.10
42683;DHT22;28293;50.930;3.464;2023-04-24T13:37:01;13.60;57.00
42683;DHT22;28293;50.930;3.464;2023-04-24T13:39:26;13.40;57.40
42683;DHT22;28293;50.930;3.464;2023-04-24T13:41:53;13.60;57.30
42683;DHT22;28293;50.930;3.464;2023-04-24T13:44:20;13.60;59.10
42683;DHT22;28293;50.930;3.464;2023-04-24T13:46:47;13.40;57.20
42683;DHT22;28293;50.930;3.464;2023-04-24T13:49:13;13.10;58.80
42683;DHT22;28293;50.930;3.464;2023-04-24T13:51:40;12.90;58.80
42683;DHT22;28293;50.930;3.464;2023-04-24T13:54:06;13.10;59.10
42683;DHT22;28293;50.930;3.464;2023-04-24T13:56:32;13.40;57.60
42683;DHT22;28293;50.930;3.464;2023-04-24T13:58:58;13.60;57.90
42683;DHT22;28293;50.930;3.464;2023-04-24T14:01:23;13.90;57.30
42683;DHT22;28293;50.930;3.464;2023-04-24T14:03:51;14.30;57.50
42683;DHT22;28293;50.930;3.464;2023-04-24T14:06:18;14.10;56.20
42683;DHT22;28293;50.930;3.464;2023-04-24T14:08:44;14.00;56.00
42683;DHT22;28293;50.930;3.464;2023-04-24T14:11:11;14.00;56.70
42683;DHT22;28293;50.930;3.464;2023-04-24T14:13:37;14.40;57.20
42683;DHT22;28293;50.930;3.464;2023-04-24T14:16:04;14.60;56.10
42683;DHT22;28293;50.930;3.464;2023-04-24T14:18:30;14.60;55.60
42683;DHT22;28293;50.930;3.464;2023-04-24T14:20:56;14.20;55.20
42683;DHT22;28293;50.930;3.464;2023-04-24T14:23:21;13.90;55.30
42683;DHT22;28293;50.930;3.464;2023-04-24T14:25:47;14.00;55.20
42683;DHT22;28293;50.930;3.464;2023-04-24T14:28:17;13.80;55.50
42683;DHT22;28293;50.930;3.464;2023-04-24T14:30:43;13.70;56.40
42683;DHT22;28293;50.930;3.464;2023-04-24T14:33:09;13.60;57.10
42683;DHT22;28293;50.930;3.464;2023-04-24T14:35:36;13.30;57.00
42683;DHT22;28293;50.930;3.464;2023-04-24T14:38:02;13.40;58.70
42683;DHT22;28293;50.930;3.464;2023-04-24T14:40:28;13.30;57.70
42683;DHT22;28293;50.930;3.464;2023-04-24T14:42:54;13.10;57.70
42683;DHT22;28293;50.930;3.464;2023-04-24T14:45:20;13.10;58.00
42683;DHT22;28293;50.930;3.464;2023-04-24T14:47:46;13.10;59.50
42683;DHT22;28293;50.930;3.464;2023-04-24T14:50:12;13.10;59.80
42683;DHT22;28293;50.930;3.464;2023-04-24T14:52:38;13.30;58.90
42683;DHT22;28293;50.930;3.464;2023-04-24T14:55:05;13.10;58.30
42683;DHT22;28293;50.930;3.464;2023-04-24T14:57:33;13.00;58.20
42683;DHT22;28293;50.930;3.464;2023-04-24T14:59:59;13.10;59.10
42683;DHT22;28293;50.930;3.464;2023-04-24T15:02:25;13.10;58.90
42683;DHT22;28293;50.930;3.464;2023-04-24T15:04:51;12.90;58.60
42683;DHT22;28293;50.930;3.464;2023-04-24T15:07:17;12.70;57.90
42683;DHT22;28293;50.930;3.464;2023-04-24T15:09:42;12.90;58.60
42683;DHT22;28293;50.930;3.464;2023-04-24T15:12:08;12.70;59.10
42683;DHT22;28293;50.930;3.464;2023-04-24T15:14:35;12.60;58.40
42683;DHT22;28293;50.930;3.464;2023-04-24T15:17:01;12.50;58.20
42683;DHT22;28293;50.930;3.464;2023-04-24T15:19:26;12.60;59.40
42683;DHT22;28293;50.930;3.464;2023-04-24T15:21:52;12.60;58.90
42683;DHT22;28293;50.930;3.464;2023-04-24T15:24:17;12.60;59.20
42683;DHT22;28293;50.930;3.464;2023-04-24T15:26:43;12.60;58.30
42683;DHT22;28293;50.930;3.464;2023-04-24T15:29:09;12.60;58.20
42683;DHT22;28293;50.930;3.464;2023-04-24T15:31:35;12.60;57.60
42683;DHT22;28293;50.930;3.464;2023-04-24T15:34:04;12.60;56.90
42683;DHT22;28293;50.930;3.464;2023-04-24T15:36:31;12.60;57.90
42683;DHT22;28293;50.930;3.464;2023-04-24T15:38:56;12.80;57.30
42683;DHT22;28293;50.930;3.464;2023-04-24T15:41:22;13.10;57.50
42683;DHT22;28293;50.930;3.464;2023-04-24T15:43:47;13.40;57.50
42683;DHT22;28293;50.930;3.464;2023-04-24T15:46:13;13.60;55.70
42683;DHT22;28293;50.930;3.464;2023-04-24T15:48:39;13.70;55.20
42683;DHT22;28293;50.930;3.464;2023-04-24T15:51:06;13.90;55.70
42683;DHT22;28293;50.930;3.464;2023-04-24T15:53:32;13.80;53.60
42683;DHT22;28293;50.930;3.464;2023-04-24T15:55:57;13.70;52.60
42683;DHT22;28293;50.930;3.464;2023-04-24T15:58:24;13.40;52.40